Terminal Aerodrome Forecast
Issued by NWS

Home | Current Version | Previous Version | Text Only | Print | Product List | Glossary On
Versions: 1 2 3 4 5 6 7 8 9 10 11 12 13 14 15 16 17 18
000
FTUS42 KTAE 220522
TAFABY
TAF
KABY 220522Z 2206/2306 12004KT P6SM BKN025
     FM220800 14005KT P6SM -SHRA BKN008
     FM221500 15008KT P6SM BKN015 OVC030
     FM221800 16007KT P6SM -TSRA BKN050CB
     FM230000 15006KT P6SM -SHRA BKN050=

USA.gov is the U.S. government's official web portal to all federal, state and local government web resources and services.